sensor_id;sensor_type;location;lat;lon;timestamp;temperature;humidity
13591;DHT22;6866;50.778;7.206;2023-07-29T00:02:04;19.70;99.90
13591;DHT22;6866;50.778;7.206;2023-07-29T00:04:30;19.60;99.90
13591;DHT22;6866;50.778;7.206;2023-07-29T00:06:55;19.60;99.90
13591;DHT22;6866;50.778;7.206;2023-07-29T00:09:21;19.60;99.90
13591;DHT22;6866;50.778;7.206;2023-07-29T00:11:46;19.70;99.90
13591;DHT22;6866;50.778;7.206;2023-07-29T00:14:12;19.60;99.90
13591;DHT22;6866;50.778;7.206;2023-07-29T00:16:37;19.60;99.90
13591;DHT22;6866;50.778;7.206;2023-07-29T00:19:03;19.60;99.90
13591;DHT22;6866;50.778;7.206;2023-07-29T00:21:29;19.60;99.90
13591;DHT22;6866;50.778;7.206;2023-07-29T00:23:54;19.60;99.90
13591;DHT22;6866;50.778;7.206;2023-07-29T00:26:22;19.60;99.90
13591;DHT22;6866;50.778;7.206;2023-07-29T00:28:48;19.60;99.90
13591;DHT22;6866;50.778;7.206;2023-07-29T00:31:13;19.60;99.90
13591;DHT22;6866;50.778;7.206;2023-07-29T00:33:39;19.50;99.90
13591;DHT22;6866;50.778;7.206;2023-07-29T00:36:05;19.50;99.90
13591;DHT22;6866;50.778;7.206;2023-07-29T00:38:30;19.60;99.90
13591;DHT22;6866;50.778;7.206;2023-07-29T00:40:57;19.60;99.90
13591;DHT22;6866;50.778;7.206;2023-07-29T00:43:24;19.60;99.90
13591;DHT22;6866;50.778;7.206;2023-07-29T00:45:49;19.60;99.90
13591;DHT22;6866;50.778;7.206;2023-07-29T00:48:15;19.60;99.90
13591;DHT22;6866;50.778;7.206;2023-07-29T00:50:41;19.50;99.90
13591;DHT22;6866;50.778;7.206;2023-07-29T00:53:06;19.50;99.90
13591;DHT22;6866;50.778;7.206;2023-07-29T00:55:32;19.60;99.90
13591;DHT22;6866;50.778;7.206;2023-07-29T00:57:58;19.60;99.90
13591;DHT22;6866;50.778;7.206;2023-07-29T01:06:27;19.50;99.90
13591;DHT22;6866;50.778;7.206;2023-07-29T01:11:41;19.50;99.90
13591;DHT22;6866;50.778;7.206;2023-07-29T01:16:47;19.60;99.90
13591;DHT22;6866;50.778;7.206;2023-07-29T01:22:06;19.60;99.90
13591;DHT22;6866;50.778;7.206;2023-07-29T01:24:32;19.60;99.90
13591;DHT22;6866;50.778;7.206;2023-07-29T01:26:58;19.60;99.90
13591;DHT22;6866;50.778;7.206;2023-07-29T01:29:23;19.60;99.90
13591;DHT22;6866;50.778;7.206;2023-07-29T01:31:51;19.60;99.90
13591;DHT22;6866;50.778;7.206;2023-07-29T01:34:45;19.60;99.90
13591;DHT22;6866;50.778;7.206;2023-07-29T01:37:15;19.60;99.90
13591;DHT22;6866;50.778;7.206;2023-07-29T01:39:43;19.60;99.90
13591;DHT22;6866;50.778;7.206;2023-07-29T01:42:10;19.60;99.90
13591;DHT22;6866;50.778;7.206;2023-07-29T01:44:36;19.60;99.90
13591;DHT22;6866;50.778;7.206;2023-07-29T01:47:02;19.60;99.90
13591;DHT22;6866;50.778;7.206;2023-07-29T01:49:27;19.50;99.90
13591;DHT22;6866;50.778;7.206;2023-07-29T01:51:53;19.50;99.90
13591;DHT22;6866;50.778;7.206;2023-07-29T01:54:18;19.50;99.90
13591;DHT22;6866;50.778;7.206;2023-07-29T01:56:44;19.60;99.90
13591;DHT22;6866;50.778;7.206;2023-07-29T01:59:09;19.60;99.90
13591;DHT22;6866;50.778;7.206;2023-07-29T02:01:35;19.50;99.90
13591;DHT22;6866;50.778;7.206;2023-07-29T02:04:01;19.50;99.90
13591;DHT22;6866;50.778;7.206;2023-07-29T02:06:26;19.60;99.90
13591;DHT22;6866;50.778;7.206;2023-07-29T02:08:53;19.60;99.90
13591;DHT22;6866;50.778;7.206;2023-07-29T02:11:19;19.60;99.90
13591;DHT22;6866;50.778;7.206;2023-07-29T02:13:45;19.60;99.90
13591;DHT22;6866;50.778;7.206;2023-07-29T02:16:11;19.50;99.90
13591;DHT22;6866;50.778;7.206;2023-07-29T02:18:36;19.60;99.90
13591;DHT22;6866;50.778;7.206;2023-07-29T02:21:02;19.60;99.90
13591;DHT22;6866;50.778;7.206;2023-07-29T02:23:28;19.60;99.90
13591;DHT22;6866;50.778;7.206;2023-07-29T02:25:54;19.70;99.90
13591;DHT22;6866;50.778;7.206;2023-07-29T02:28:19;19.70;99.90
13591;DHT22;6866;50.778;7.206;2023-07-29T02:30:45;19.70;99.90
13591;DHT22;6866;50.778;7.206;2023-07-29T02:33:10;19.80;99.90
13591;DHT22;6866;50.778;7.206;2023-07-29T02:35:36;19.70;99.90
13591;DHT22;6866;50.778;7.206;2023-07-29T02:38:01;19.80;99.90
13591;DHT22;6866;50.778;7.206;2023-07-29T02:40:27;19.70;99.90
13591;DHT22;6866;50.778;7.206;2023-07-29T02:42:54;19.70;99.90
13591;DHT22;6866;50.778;7.206;2023-07-29T02:45:20;19.70;99.90
13591;DHT22;6866;50.778;7.206;2023-07-29T02:47:45;19.70;99.90
13591;DHT22;6866;50.778;7.206;2023-07-29T02:50:11;19.70;99.90
13591;DHT22;6866;50.778;7.206;2023-07-29T02:52:36;19.70;99.90
13591;DHT22;6866;50.778;7.206;2023-07-29T02:55:02;19.60;99.90
13591;DHT22;6866;50.778;7.206;2023-07-29T02:57:27;19.60;99.90
13591;DHT22;6866;50.778;7.206;2023-07-29T02:59:53;19.60;99.90
13591;DHT22;6866;50.778;7.206;2023-07-29T03:02:18;19.60;99.90
13591;DHT22;6866;50.778;7.206;2023-07-29T03:04:44;19.60;99.90
13591;DHT22;6866;50.778;7.206;2023-07-29T03:07:09;19.60;99.90
13591;DHT22;6866;50.778;7.206;2023-07-29T03:09:35;19.60;99.90
13591;DHT22;6866;50.778;7.206;2023-07-29T03:12:01;19.60;99.90
13591;DHT22;6866;50.778;7.206;2023-07-29T03:14:26;19.60;99.90
13591;DHT22;6866;50.778;7.206;2023-07-29T03:16:53;19.60;99.90
13591;DHT22;6866;50.778;7.206;2023-07-29T03:19:18;19.60;99.90
13591;DHT22;6866;50.778;7.206;2023-07-29T03:21:44;19.50;99.90
13591;DHT22;6866;50.778;7.206;2023-07-29T03:24:09;19.50;99.90
13591;DHT22;6866;50.778;7.206;2023-07-29T03:26:35;19.50;99.90
13591;DHT22;6866;50.778;7.206;2023-07-29T03:29:00;19.50;99.90
13591;DHT22;6866;50.778;7.206;2023-07-29T03:31:26;19.50;99.90
13591;DHT22;6866;50.778;7.206;2023-07-29T03:33:51;19.50;99.90
13591;DHT22;6866;50.778;7.206;2023-07-29T03:36:17;19.40;99.90
13591;DHT22;6866;50.778;7.206;2023-07-29T03:38:42;19.40;99.90
13591;DHT22;6866;50.778;7.206;2023-07-29T03:41:10;19.40;99.90
13591;DHT22;6866;50.778;7.206;2023-07-29T03:43:35;19.30;99.90
13591;DHT22;6866;50.778;7.206;2023-07-29T03:46:01;19.40;99.90
13591;DHT22;6866;50.778;7.206;2023-07-29T03:48:26;19.30;99.90
13591;DHT22;6866;50.778;7.206;2023-07-29T03:50:52;19.30;99.90
13591;DHT22;6866;50.778;7.206;2023-07-29T03:53:17;19.20;99.90
13591;DHT22;6866;50.778;7.206;2023-07-29T03:55:43;19.20;99.90
13591;DHT22;6866;50.778;7.206;2023-07-29T03:58:09;19.20;99.90
13591;DHT22;6866;50.778;7.206;2023-07-29T04:00:35;19.10;99.90
13591;DHT22;6866;50.778;7.206;2023-07-29T04:03:00;19.20;99.90
13591;DHT22;6866;50.778;7.206;2023-07-29T04:05:26;19.20;99.90
13591;DHT22;6866;50.778;7.206;2023-07-29T04:07:51;19.20;99.90
13591;DHT22;6866;50.778;7.206;2023-07-29T04:10:19;19.10;99.90
13591;DHT22;6866;50.778;7.206;2023-07-29T04:12:44;19.20;99.90
13591;DHT22;6866;50.778;7.206;2023-07-29T04:15:10;19.10;99.90
13591;DHT22;6866;50.778;7.206;2023-07-29T04:17:35;19.10;99.90
13591;DHT22;6866;50.778;7.206;2023-07-29T04:20:01;19.20;99.90
13591;DHT22;6866;50.778;7.206;2023-07-29T04:22:26;19.20;99.90
13591;DHT22;6866;50.778;7.206;2023-07-29T04:24:52;19.10;99.90
13591;DHT22;6866;50.778;7.206;2023-07-29T04:27:18;19.10;99.90
13591;DHT22;6866;50.778;7.206;2023-07-29T04:29:43;19.10;99.90
13591;DHT22;6866;50.778;7.206;2023-07-29T04:32:09;19.10;99.90
13591;DHT22;6866;50.778;7.206;2023-07-29T04:34:34;19.20;99.90
13591;DHT22;6866;50.778;7.206;2023-07-29T04:37:00;19.20;99.90
13591;DHT22;6866;50.778;7.206;2023-07-29T04:39:26;19.20;99.90
13591;DHT22;6866;50.778;7.206;2023-07-29T04:41:51;19.20;99.90
13591;DHT22;6866;50.778;7.206;2023-07-29T04:44:17;19.10;99.90
13591;DHT22;6866;50.778;7.206;2023-07-29T04:46:42;19.10;99.90
13591;DHT22;6866;50.778;7.206;2023-07-29T04:49:08;19.20;99.90
13591;DHT22;6866;50.778;7.206;2023-07-29T04:51:33;19.20;99.90
13591;DHT22;6866;50.778;7.206;2023-07-29T04:53:59;19.20;99.90
13591;DHT22;6866;50.778;7.206;2023-07-29T04:56:25;19.20;99.90
13591;DHT22;6866;50.778;7.206;2023-07-29T04:58:50;19.10;99.90
13591;DHT22;6866;50.778;7.206;2023-07-29T05:01:16;19.00;99.90
13591;DHT22;6866;50.778;7.206;2023-07-29T05:03:42;19.10;99.90
13591;DHT22;6866;50.778;7.206;2023-07-29T05:06:07;19.10;99.90
13591;DHT22;6866;50.778;7.206;2023-07-29T05:08:33;19.10;99.90
13591;DHT22;6866;50.778;7.206;2023-07-29T05:10:58;19.20;99.90
13591;DHT22;6866;50.778;7.206;2023-07-29T05:13:24;19.20;99.90
13591;DHT22;6866;50.778;7.206;2023-07-29T05:15:50;19.10;99.90
13591;DHT22;6866;50.778;7.206;2023-07-29T05:18:16;19.10;99.90
13591;DHT22;6866;50.778;7.206;2023-07-29T05:20:42;19.10;99.90
13591;DHT22;6866;50.778;7.206;2023-07-29T05:23:08;19.10;99.90
13591;DHT22;6866;50.778;7.206;2023-07-29T05:25:33;19.20;99.90
13591;DHT22;6866;50.778;7.206;2023-07-29T05:28:00;19.20;99.90
13591;DHT22;6866;50.778;7.206;2023-07-29T05:30:26;19.20;99.90
13591;DHT22;6866;50.778;7.206;2023-07-29T05:32:52;19.20;99.90
13591;DHT22;6866;50.778;7.206;2023-07-29T05:35:18;19.30;99.90
13591;DHT22;6866;50.778;7.206;2023-07-29T05:37:43;19.40;99.90
13591;DHT22;6866;50.778;7.206;2023-07-29T05:40:09;19.50;99.90
13591;DHT22;6866;50.778;7.206;2023-07-29T05:42:34;19.60;99.90
13591;DHT22;6866;50.778;7.206;2023-07-29T05:45:00;19.70;99.90
13591;DHT22;6866;50.778;7.206;2023-07-29T05:47:26;19.90;99.90
13591;DHT22;6866;50.778;7.206;2023-07-29T05:49:52;20.30;99.90
13591;DHT22;6866;50.778;7.206;2023-07-29T05:52:17;21.30;99.90
13591;DHT22;6866;50.778;7.206;2023-07-29T05:54:43;21.30;99.90
13591;DHT22;6866;50.778;7.206;2023-07-29T05:57:09;20.80;99.90
13591;DHT22;6866;50.778;7.206;2023-07-29T05:59:35;20.40;99.90
13591;DHT22;6866;50.778;7.206;2023-07-29T06:02:01;20.10;99.90
13591;DHT22;6866;50.778;7.206;2023-07-29T06:04:26;20.00;99.90
13591;DHT22;6866;50.778;7.206;2023-07-29T06:06:52;19.90;99.90
13591;DHT22;6866;50.778;7.206;2023-07-29T06:09:18;19.90;99.90
13591;DHT22;6866;50.778;7.206;2023-07-29T06:11:43;19.80;99.90
13591;DHT22;6866;50.778;7.206;2023-07-29T06:14:09;19.90;99.90
13591;DHT22;6866;50.778;7.206;2023-07-29T06:16:34;19.80;99.90
13591;DHT22;6866;50.778;7.206;2023-07-29T06:19:00;19.80;99.90
13591;DHT22;6866;50.778;7.206;2023-07-29T06:21:25;19.80;99.90
13591;DHT22;6866;50.778;7.206;2023-07-29T06:23:51;19.80;99.90
13591;DHT22;6866;50.778;7.206;2023-07-29T06:26:16;19.80;99.90
13591;DHT22;6866;50.778;7.206;2023-07-29T06:28:42;19.80;99.90
13591;DHT22;6866;50.778;7.206;2023-07-29T06:31:07;19.80;99.90
13591;DHT22;6866;50.778;7.206;2023-07-29T06:33:33;19.80;99.90
13591;DHT22;6866;50.778;7.206;2023-07-29T06:35:58;19.80;99.90
13591;DHT22;6866;50.778;7.206;2023-07-29T06:38:24;19.80;99.90
13591;DHT22;6866;50.778;7.206;2023-07-29T06:40:49;19.90;99.90
13591;DHT22;6866;50.778;7.206;2023-07-29T06:43:15;19.90;99.90
13591;DHT22;6866;50.778;7.206;2023-07-29T06:45:41;19.90;99.90
13591;DHT22;6866;50.778;7.206;2023-07-29T06:48:06;19.90;99.90
13591;DHT22;6866;50.778;7.206;2023-07-29T06:50:32;19.90;99.90
13591;DHT22;6866;50.778;7.206;2023-07-29T06:52:57;19.90;99.90
13591;DHT22;6866;50.778;7.206;2023-07-29T06:55:23;19.90;99.90
13591;DHT22;6866;50.778;7.206;2023-07-29T06:57:48;20.00;99.90
13591;DHT22;6866;50.778;7.206;2023-07-29T07:00:14;20.10;99.90
13591;DHT22;6866;50.778;7.206;2023-07-29T07:02:40;20.20;99.90
13591;DHT22;6866;50.778;7.206;2023-07-29T07:05:05;20.60;99.90
13591;DHT22;6866;50.778;7.206;2023-07-29T07:07:31;21.20;99.90
13591;DHT22;6866;50.778;7.206;2023-07-29T07:09:56;21.50;99.90
13591;DHT22;6866;50.778;7.206;2023-07-29T07:12:22;21.70;99.90
13591;DHT22;6866;50.778;7.206;2023-07-29T07:14:47;21.70;99.90
13591;DHT22;6866;50.778;7.206;2023-07-29T07:17:13;21.50;99.90
13591;DHT22;6866;50.778;7.206;2023-07-29T07:19:39;21.50;99.90
13591;DHT22;6866;50.778;7.206;2023-07-29T07:22:04;21.50;99.90
13591;DHT22;6866;50.778;7.206;2023-07-29T07:24:30;21.50;99.90
13591;DHT22;6866;50.778;7.206;2023-07-29T07:26:56;21.30;99.90
13591;DHT22;6866;50.778;7.206;2023-07-29T07:29:21;21.30;99.90
13591;DHT22;6866;50.778;7.206;2023-07-29T07:31:52;21.20;99.90
13591;DHT22;6866;50.778;7.206;2023-07-29T07:34:21;21.10;99.90
13591;DHT22;6866;50.778;7.206;2023-07-29T07:36:47;21.10;99.90
13591;DHT22;6866;50.778;7.206;2023-07-29T07:39:13;21.10;99.90
13591;DHT22;6866;50.778;7.206;2023-07-29T07:41:38;21.10;99.90
13591;DHT22;6866;50.778;7.206;2023-07-29T07:44:04;21.10;99.90
13591;DHT22;6866;50.778;7.206;2023-07-29T07:46:29;21.20;99.90
13591;DHT22;6866;50.778;7.206;2023-07-29T07:48:55;21.20;99.90
13591;DHT22;6866;50.778;7.206;2023-07-29T07:51:21;21.30;99.90
13591;DHT22;6866;50.778;7.206;2023-07-29T07:53:46;21.40;99.90
13591;DHT22;6866;50.778;7.206;2023-07-29T07:56:12;21.50;99.90
13591;DHT22;6866;50.778;7.206;2023-07-29T07:58:38;21.90;99.90
13591;DHT22;6866;50.778;7.206;2023-07-29T08:01:08;22.10;99.90
13591;DHT22;6866;50.778;7.206;2023-07-29T08:03:35;22.40;99.90
13591;DHT22;6866;50.778;7.206;2023-07-29T08:06:01;22.60;99.90
13591;DHT22;6866;50.778;7.206;2023-07-29T08:08:26;22.90;99.90
13591;DHT22;6866;50.778;7.206;2023-07-29T08:10:56;23.40;99.90
13591;DHT22;6866;50.778;7.206;2023-07-29T08:13:23;23.90;99.90
13591;DHT22;6866;50.778;7.206;2023-07-29T08:15:50;24.00;99.90
13591;DHT22;6866;50.778;7.206;2023-07-29T08:18:16;23.70;99.90
13591;DHT22;6866;50.778;7.206;2023-07-29T08:20:55;23.50;99.90
13591;DHT22;6866;50.778;7.206;2023-07-29T08:23:21;23.30;99.90
13591;DHT22;6866;50.778;7.206;2023-07-29T08:25:58;23.10;99.90
13591;DHT22;6866;50.778;7.206;2023-07-29T08:28:30;23.10;99.90
13591;DHT22;6866;50.778;7.206;2023-07-29T08:30:56;22.90;99.90
13591;DHT22;6866;50.778;7.206;2023-07-29T08:33:22;22.80;99.90
13591;DHT22;6866;50.778;7.206;2023-07-29T08:35:47;23.10;99.90
13591;DHT22;6866;50.778;7.206;2023-07-29T08:38:13;23.50;99.90
13591;DHT22;6866;50.778;7.206;2023-07-29T08:41:06;23.70;99.90
13591;DHT22;6866;50.778;7.206;2023-07-29T08:43:30;23.80;99.90
13591;DHT22;6866;50.778;7.206;2023-07-29T08:45:57;23.60;99.90
13591;DHT22;6866;50.778;7.206;2023-07-29T08:48:32;23.50;99.90
13591;DHT22;6866;50.778;7.206;2023-07-29T08:51:00;23.30;99.90
13591;DHT22;6866;50.778;7.206;2023-07-29T08:53:26;23.10;99.90
13591;DHT22;6866;50.778;7.206;2023-07-29T08:55:53;22.90;99.90
13591;DHT22;6866;50.778;7.206;2023-07-29T08:58:21;22.80;99.90
13591;DHT22;6866;50.778;7.206;2023-07-29T09:00:48;22.70;99.90
13591;DHT22;6866;50.778;7.206;2023-07-29T09:03:13;22.70;99.90
13591;DHT22;6866;50.778;7.206;2023-07-29T09:05:39;22.50;99.90
13591;DHT22;6866;50.778;7.206;2023-07-29T09:08:05;22.30;99.90
13591;DHT22;6866;50.778;7.206;2023-07-29T09:10:35;22.10;99.90
13591;DHT22;6866;50.778;7.206;2023-07-29T09:13:01;21.90;99.90
13591;DHT22;6866;50.778;7.206;2023-07-29T09:15:30;21.90;99.90
13591;DHT22;6866;50.778;7.206;2023-07-29T09:17:56;21.80;99.90
13591;DHT22;6866;50.778;7.206;2023-07-29T09:20:27;21.70;99.90
13591;DHT22;6866;50.778;7.206;2023-07-29T09:22:58;21.60;99.90
13591;DHT22;6866;50.778;7.206;2023-07-29T09:25:26;21.50;99.90
13591;DHT22;6866;50.778;7.206;2023-07-29T09:27:52;21.40;99.90
13591;DHT22;6866;50.778;7.206;2023-07-29T09:30:18;21.50;99.90
13591;DHT22;6866;50.778;7.206;2023-07-29T09:32:44;21.30;99.90
13591;DHT22;6866;50.778;7.206;2023-07-29T09:35:13;21.20;99.90
13591;DHT22;6866;50.778;7.206;2023-07-29T09:37:39;21.10;99.90
13591;DHT22;6866;50.778;7.206;2023-07-29T09:40:06;21.20;99.90
13591;DHT22;6866;50.778;7.206;2023-07-29T09:42:32;21.20;99.90
13591;DHT22;6866;50.778;7.206;2023-07-29T09:44:57;21.20;99.90
13591;DHT22;6866;50.778;7.206;2023-07-29T09:47:25;21.30;99.90
13591;DHT22;6866;50.778;7.206;2023-07-29T09:49:51;21.40;99.90
13591;DHT22;6866;50.778;7.206;2023-07-29T09:52:18;21.50;99.90
13591;DHT22;6866;50.778;7.206;2023-07-29T09:54:45;21.60;99.90
13591;DHT22;6866;50.778;7.206;2023-07-29T09:57:15;21.80;99.90
13591;DHT22;6866;50.778;7.206;2023-07-29T09:59:42;21.80;99.90
13591;DHT22;6866;50.778;7.206;2023-07-29T10:02:13;21.80;99.90
13591;DHT22;6866;50.778;7.206;2023-07-29T10:04:44;21.90;99.90
13591;DHT22;6866;50.778;7.206;2023-07-29T10:07:11;21.90;99.90
13591;DHT22;6866;50.778;7.206;2023-07-29T10:09:39;21.80;99.90
13591;DHT22;6866;50.778;7.206;2023-07-29T10:12:06;21.60;99.90
13591;DHT22;6866;50.778;7.206;2023-07-29T10:14:32;21.70;99.90
13591;DHT22;6866;50.778;7.206;2023-07-29T10:16:58;21.70;99.90
13591;DHT22;6866;50.778;7.206;2023-07-29T10:19:25;21.70;99.90
13591;DHT22;6866;50.778;7.206;2023-07-29T10:21:52;21.60;99.90
13591;DHT22;6866;50.778;7.206;2023-07-29T10:24:22;21.70;99.90
13591;DHT22;6866;50.778;7.206;2023-07-29T10:26:57;21.70;99.90
13591;DHT22;6866;50.778;7.206;2023-07-29T10:29:23;21.70;99.90
13591;DHT22;6866;50.778;7.206;2023-07-29T10:31:52;21.80;99.90
13591;DHT22;6866;50.778;7.206;2023-07-29T10:34:19;21.70;99.90
13591;DHT22;6866;50.778;7.206;2023-07-29T10:36:47;21.80;99.90
13591;DHT22;6866;50.778;7.206;2023-07-29T10:39:13;21.80;99.90
13591;DHT22;6866;50.778;7.206;2023-07-29T10:42:01;21.50;99.90
13591;DHT22;6866;50.778;7.206;2023-07-29T10:49:56;21.10;99.90
13591;DHT22;6866;50.778;7.206;2023-07-29T10:52:30;21.20;99.90
13591;DHT22;6866;50.778;7.206;2023-07-29T10:54:55;21.00;99.90
13591;DHT22;6866;50.778;7.206;2023-07-29T10:57:35;21.00;99.90
13591;DHT22;6866;50.778;7.206;2023-07-29T11:00:02;21.00;99.90
13591;DHT22;6866;50.778;7.206;2023-07-29T11:02:36;20.90;99.90
13591;DHT22;6866;50.778;7.206;2023-07-29T11:05:16;20.90;99.90
13591;DHT22;6866;50.778;7.206;2023-07-29T11:07:49;21.00;99.90
13591;DHT22;6866;50.778;7.206;2023-07-29T11:10:15;21.20;99.90
13591;DHT22;6866;50.778;7.206;2023-07-29T11:15:13;21.10;99.90
13591;DHT22;6866;50.778;7.206;2023-07-29T11:20:10;21.10;99.90
13591;DHT22;6866;50.778;7.206;2023-07-29T11:22:36;21.20;99.90
13591;DHT22;6866;50.778;7.206;2023-07-29T11:25:02;21.30;99.90
13591;DHT22;6866;50.778;7.206;2023-07-29T11:27:28;21.50;99.90
13591;DHT22;6866;50.778;7.206;2023-07-29T11:30:19;21.80;99.90
13591;DHT22;6866;50.778;7.206;2023-07-29T11:32:46;22.00;99.90
13591;DHT22;6866;50.778;7.206;2023-07-29T11:35:17;21.90;99.90
13591;DHT22;6866;50.778;7.206;2023-07-29T11:37:44;21.60;99.90
13591;DHT22;6866;50.778;7.206;2023-07-29T11:40:20;21.60;99.90
13591;DHT22;6866;50.778;7.206;2023-07-29T11:42:47;21.90;99.90
13591;DHT22;6866;50.778;7.206;2023-07-29T11:45:13;21.80;99.90
13591;DHT22;6866;50.778;7.206;2023-07-29T11:47:39;21.90;99.90
13591;DHT22;6866;50.778;7.206;2023-07-29T11:50:06;22.10;99.90
13591;DHT22;6866;50.778;7.206;2023-07-29T11:52:33;22.20;99.90
13591;DHT22;6866;50.778;7.206;2023-07-29T11:55:00;22.10;99.90
13591;DHT22;6866;50.778;7.206;2023-07-29T11:57:27;22.20;99.90
13591;DHT22;6866;50.778;7.206;2023-07-29T11:59:52;22.30;99.90
13591;DHT22;6866;50.778;7.206;2023-07-29T12:02:19;22.20;99.90
13591;DHT22;6866;50.778;7.206;2023-07-29T12:04:47;22.20;99.90
13591;DHT22;6866;50.778;7.206;2023-07-29T12:07:13;22.10;99.90
13591;DHT22;6866;50.778;7.206;2023-07-29T12:09:40;22.00;99.90
13591;DHT22;6866;50.778;7.206;2023-07-29T12:12:07;22.30;99.90
13591;DHT22;6866;50.778;7.206;2023-07-29T12:14:33;22.20;99.90
13591;DHT22;6866;50.778;7.206;2023-07-29T12:17:03;22.20;99.90
13591;DHT22;6866;50.778;7.206;2023-07-29T12:19:36;22.40;99.90
13591;DHT22;6866;50.778;7.206;2023-07-29T12:22:03;22.40;99.90
13591;DHT22;6866;50.778;7.206;2023-07-29T12:24:33;22.70;99.90
13591;DHT22;6866;50.778;7.206;2023-07-29T12:26:59;23.20;99.90
13591;DHT22;6866;50.778;7.206;2023-07-29T12:29:24;23.30;99.90
13591;DHT22;6866;50.778;7.206;2023-07-29T12:31:58;23.10;99.90
13591;DHT22;6866;50.778;7.206;2023-07-29T12:34:26;23.30;99.90
13591;DHT22;6866;50.778;7.206;2023-07-29T12:36:52;23.60;99.90
13591;DHT22;6866;50.778;7.206;2023-07-29T12:39:29;23.60;99.90
13591;DHT22;6866;50.778;7.206;2023-07-29T12:41:58;23.10;99.90
13591;DHT22;6866;50.778;7.206;2023-07-29T12:44:24;23.50;99.90
13591;DHT22;6866;50.778;7.206;2023-07-29T12:46:51;23.70;99.90
13591;DHT22;6866;50.778;7.206;2023-07-29T12:49:17;23.80;99.90
13591;DHT22;6866;50.778;7.206;2023-07-29T12:51:42;23.90;99.90
13591;DHT22;6866;50.778;7.206;2023-07-29T12:54:08;23.40;99.90
13591;DHT22;6866;50.778;7.206;2023-07-29T12:56:34;23.60;99.90
13591;DHT22;6866;50.778;7.206;2023-07-29T12:59:00;23.80;99.90
13591;DHT22;6866;50.778;7.206;2023-07-29T13:01:27;23.90;99.90
13591;DHT22;6866;50.778;7.206;2023-07-29T13:03:53;23.90;99.90
13591;DHT22;6866;50.778;7.206;2023-07-29T13:06:19;23.80;99.90
13591;DHT22;6866;50.778;7.206;2023-07-29T13:08:47;23.70;99.90
13591;DHT22;6866;50.778;7.206;2023-07-29T13:11:12;23.70;99.90
13591;DHT22;6866;50.778;7.206;2023-07-29T13:13:38;23.50;99.90
13591;DHT22;6866;50.778;7.206;2023-07-29T13:16:04;23.30;99.90
13591;DHT22;6866;50.778;7.206;2023-07-29T13:18:30;23.20;99.90
13591;DHT22;6866;50.778;7.206;2023-07-29T13:20:55;23.20;99.90
13591;DHT22;6866;50.778;7.206;2023-07-29T13:23:21;22.90;99.90
13591;DHT22;6866;50.778;7.206;2023-07-29T13:25:47;22.90;99.90
13591;DHT22;6866;50.778;7.206;2023-07-29T13:28:13;22.90;99.90
13591;DHT22;6866;50.778;7.206;2023-07-29T13:30:39;22.80;99.90
13591;DHT22;6866;50.778;7.206;2023-07-29T13:33:06;22.90;99.90
13591;DHT22;6866;50.778;7.206;2023-07-29T13:35:32;22.70;99.90
13591;DHT22;6866;50.778;7.206;2023-07-29T13:37:57;22.70;99.90
13591;DHT22;6866;50.778;7.206;2023-07-29T13:40:23;22.50;99.90
13591;DHT22;6866;50.778;7.206;2023-07-29T13:42:48;22.50;99.90
13591;DHT22;6866;50.778;7.206;2023-07-29T13:45:14;22.50;99.90
13591;DHT22;6866;50.778;7.206;2023-07-29T13:47:39;22.40;99.90
13591;DHT22;6866;50.778;7.206;2023-07-29T13:50:06;22.30;99.90
13591;DHT22;6866;50.778;7.206;2023-07-29T13:52:33;22.30;99.90
13591;DHT22;6866;50.778;7.206;2023-07-29T13:54:59;22.10;99.90
13591;DHT22;6866;50.778;7.206;2023-07-29T13:57:24;22.00;99.90
13591;DHT22;6866;50.778;7.206;2023-07-29T13:59:50;22.10;99.90
13591;DHT22;6866;50.778;7.206;2023-07-29T14:02:15;22.00;99.90
13591;DHT22;6866;50.778;7.206;2023-07-29T14:04:41;22.00;99.90
13591;DHT22;6866;50.778;7.206;2023-07-29T14:07:06;22.10;99.90
13591;DHT22;6866;50.778;7.206;2023-07-29T14:09:32;22.10;99.90
13591;DHT22;6866;50.778;7.206;2023-07-29T14:11:57;22.10;99.90
13591;DHT22;6866;50.778;7.206;2023-07-29T14:14:23;22.10;99.90
13591;DHT22;6866;50.778;7.206;2023-07-29T14:16:48;22.00;99.90
13591;DHT22;6866;50.778;7.206;2023-07-29T14:19:14;22.00;99.90
13591;DHT22;6866;50.778;7.206;2023-07-29T14:21:40;21.90;99.90
13591;DHT22;6866;50.778;7.206;2023-07-29T14:24:05;21.90;99.90
13591;DHT22;6866;50.778;7.206;2023-07-29T14:26:31;21.80;99.90
13591;DHT22;6866;50.778;7.206;2023-07-29T14:28:56;21.90;99.90
13591;DHT22;6866;50.778;7.206;2023-07-29T14:31:22;21.90;99.90
13591;DHT22;6866;50.778;7.206;2023-07-29T14:33:48;21.90;99.90
13591;DHT22;6866;50.778;7.206;2023-07-29T14:36:15;22.00;99.90
13591;DHT22;6866;50.778;7.206;2023-07-29T14:38:40;22.10;99.90
13591;DHT22;6866;50.778;7.206;2023-07-29T14:41:06;22.20;99.90
13591;DHT22;6866;50.778;7.206;2023-07-29T14:43:31;22.20;99.90
13591;DHT22;6866;50.778;7.206;2023-07-29T14:45:57;22.30;99.90
13591;DHT22;6866;50.778;7.206;2023-07-29T14:48:23;22.30;99.90
13591;DHT22;6866;50.778;7.206;2023-07-29T14:50:49;22.20;99.90
13591;DHT22;6866;50.778;7.206;2023-07-29T14:53:14;22.20;99.90
13591;DHT22;6866;50.778;7.206;2023-07-29T14:55:40;22.10;99.90
13591;DHT22;6866;50.778;7.206;2023-07-29T14:58:05;22.10;99.90
13591;DHT22;6866;50.778;7.206;2023-07-29T15:00:31;22.10;99.90
13591;DHT22;6866;50.778;7.206;2023-07-29T15:02:56;22.10;99.90
13591;DHT22;6866;50.778;7.206;2023-07-29T15:05:22;22.10;99.90
13591;DHT22;6866;50.778;7.206;2023-07-29T15:07:47;22.00;99.90
13591;DHT22;6866;50.778;7.206;2023-07-29T15:10:16;21.90;99.90
13591;DHT22;6866;50.778;7.206;2023-07-29T15:12:43;21.90;99.90
13591;DHT22;6866;50.778;7.206;2023-07-29T15:15:09;21.80;99.90
13591;DHT22;6866;50.778;7.206;2023-07-29T15:17:35;21.80;99.90
13591;DHT22;6866;50.778;7.206;2023-07-29T15:20:02;21.80;99.90
13591;DHT22;6866;50.778;7.206;2023-07-29T15:22:29;21.80;99.90
13591;DHT22;6866;50.778;7.206;2023-07-29T15:24:55;21.80;99.90
13591;DHT22;6866;50.778;7.206;2023-07-29T15:27:20;21.80;99.90
13591;DHT22;6866;50.778;7.206;2023-07-29T15:29:47;21.90;99.90
13591;DHT22;6866;50.778;7.206;2023-07-29T15:32:13;21.90;99.90
13591;DHT22;6866;50.778;7.206;2023-07-29T15:34:38;21.90;99.90
13591;DHT22;6866;50.778;7.206;2023-07-29T15:37:04;21.90;99.90
13591;DHT22;6866;50.778;7.206;2023-07-29T15:39:29;22.00;99.90
13591;DHT22;6866;50.778;7.206;2023-07-29T15:41:56;22.00;99.90
13591;DHT22;6866;50.778;7.206;2023-07-29T15:44:21;22.00;99.90
13591;DHT22;6866;50.778;7.206;2023-07-29T15:46:47;22.10;99.90
13591;DHT22;6866;50.778;7.206;2023-07-29T15:49:13;22.10;99.90
13591;DHT22;6866;50.778;7.206;2023-07-29T15:51:38;22.00;99.90
13591;DHT22;6866;50.778;7.206;2023-07-29T15:54:04;21.90;99.90
13591;DHT22;6866;50.778;7.206;2023-07-29T15:56:29;21.80;99.90
13591;DHT22;6866;50.778;7.206;2023-07-29T15:58:56;21.70;99.90
13591;DHT22;6866;50.778;7.206;2023-07-29T16:01:22;21.60;99.90
13591;DHT22;6866;50.778;7.206;2023-07-29T16:03:48;21.60;99.90
13591;DHT22;6866;50.778;7.206;2023-07-29T16:06:13;21.60;99.90